• Join FlightAware (Why Join?)
  • Login
  • US Flag 
01:38PM EDT


 

Airport Tracker/Info


-or-


 

Live Flight TrackerFlight Track Log ✈ OAE558 ✈ 05-Jul-2013 ✈ PAEI / EIL - EINN / SNN

Flight Track Log - Related Links

Times and Time Zones

All times are in EDT time to prevent confusion due to time zone crossing. See the OAE558 flight status page for this flight to view local times or setup timezone preferences in your user account.

Time Position Orientation Groundspeed Altitude Reporting Facility
EDT Latitude Longitude Course Direction KTS MPH feet Rate Location/Type
11:25AM 64.7833 -147.2167 29° Northeast 250 288 4,400  Level Anchorage Center
11:26AM 64.7500 -147.3667 243° Southwest 260 299 6,900 2,340 Climbing Anchorage Center
11:27AM 64.7000 -147.2833 145° Southeast 280 322 9,100 1,920 Climbing Anchorage Center
11:28AM 64.6500 -147.1333 128° Southeast 290 334 10,800 1,440 Climbing Anchorage Center
11:29AM 64.6000 -146.9500 122° Southeast 350 403 12,100 1,560 Climbing Anchorage Center
11:30AM 65.4480 -146.0805 28° Northeast  Level Estimated
11:30AM 64.5333 -146.7500 128° Southeast 390 449 14,000  Level Anchorage Center
11:31AM 65.5592 -145.9297 29° Northeast  Level Estimated
11:31AM 64.4667 -146.5167 123° Southeast 410 472 16,400  Level Anchorage Center
11:32AM 64.4167 -146.3000 118° Southeast 420 483 18,400 2,040 Climbing Anchorage Center
11:33AM 64.3333 -146.0667 129° Southeast 440 506 20,500 1,920 Climbing Anchorage Center
11:34AM 64.2667 -145.8333 123° Southeast 450 518 22,300 1,740 Climbing Anchorage Center
11:35AM 64.1833 -145.5833 127° Southeast 460 529 24,100 1,680 Climbing Anchorage Center
11:36AM 64.1167 -145.3333 121° Southeast 480 552 25,700 1,860 Climbing Anchorage Center
11:37AM 64.0333 -145.0833 127° Southeast 470 541 27,900 1,740 Climbing Anchorage Center
11:38AM 63.9500 -144.8500 129° Southeast 470 541 29,300 1,500 Climbing Anchorage Center
11:39AM 63.8833 -144.6333 125° Southeast 490 564 31,000 840 Climbing Anchorage Center
11:40AM 63.8000 -144.3833 127° Southeast 480 552 31,000  Level Anchorage Center
11:41AM 63.7333 -144.1500 123° Southeast 470 541 31,000  Level Anchorage Center
11:42AM 63.6500 -143.9167 129° Southeast 470 541 31,000  Level Anchorage Center
11:43AM 63.5667 -143.6667 127° Southeast 480 552 31,000  Level Anchorage Center
11:44AM 63.4833 -143.4333 129° Southeast 490 564 31,000  Level Anchorage Center
11:45AM 63.4000 -143.2000 129° Southeast 480 552 31,000  Level Anchorage Center
11:46AM 63.3167 -142.9667 128° Southeast 490 564 31,000  Level Anchorage Center
11:47AM 63.2333 -142.7167 126° Southeast 480 552 31,000  Level Anchorage Center
11:48AM 63.1500 -142.4833 128° Southeast 480 552 31,000  Level Anchorage Center
11:49AM 63.0500 -142.2167 130° Southeast 480 552 31,000  Level Anchorage Center
11:50AM 62.9667 -141.9833 128° Southeast 480 552 31,000  Level Anchorage Center
11:51AM 62.9000 -141.7500 122° Southeast 480 552 31,000  Level Anchorage Center
11:52AM 62.8167 -141.5000 126° Southeast 480 552 31,000  Level Anchorage Center
11:53AM 62.7500 -141.2667 122° Southeast 480 552 31,000  Level Anchorage Center
11:54AM 62.6833 -141.0167 120° Southeast 470 541 31,000  Level Anchorage Center
11:58AM 62.8208 -140.8302 32° Northeast  Level Estimated
12:05PM 63.6064 -139.7223 32° Northeast  Level Estimated
12:06PM 63.7179 -139.5591 33° Northeast  Level Estimated
12:07PM 63.8293 -139.3945 33° Northeast  Level Estimated
12:08PM 63.9404 -139.2287 33° Northeast  Level Estimated
12:09PM 64.0514 -139.0615 33° Northeast  Level Estimated
12:10PM 64.1622 -138.8930 34° Northeast  Level Estimated
12:11PM 64.2727 -138.7231 34° Northeast  Level Estimated
12:12PM 64.3831 -138.5519 34° Northeast  Level Estimated
12:13PM 64.4933 -138.3793 34° Northeast  Level Estimated
12:14PM 64.6032 -138.2053 34° Northeast  Level Estimated
12:15PM 64.7130 -138.0299 34° Northeast  Level Estimated
12:16PM 64.8225 -137.8530 34° Northeast  Level Estimated
12:17PM 64.9319 -137.6748 35° Northeast  Level Estimated
12:18PM 65.0410 -137.4950 35° Northeast  Level Estimated
12:19PM 65.1499 -137.3138 35° Northeast  Level Estimated
12:20PM 65.2586 -137.1311 35° Northeast  Level Estimated
12:21PM 65.3671 -136.9469 35° Northeast  Level Estimated
12:22PM 65.4753 -136.7612 35° Northeast  Level Estimated
12:23PM 65.5833 -136.5739 36° Northeast  Level Estimated
12:24PM 65.6911 -136.3850 36° Northeast  Level Estimated
12:25PM 65.7986 -136.1946 36° Northeast  Level Estimated
12:26PM 65.9059 -136.0026 36° Northeast  Level Estimated
12:27PM 66.0130 -135.8090 36° Northeast  Level Estimated
12:28PM 66.1198 -135.6137 36° Northeast  Level Estimated
12:29PM 66.2263 -135.4168 37° Northeast  Level Estimated
12:30PM 66.3326 -135.2182 37° Northeast  Level Estimated
12:31PM 66.4387 -135.0179 37° Northeast  Level Estimated
12:32PM 66.5445 -134.8160 37° Northeast  Level Estimated
12:33PM 66.6500 -134.6123 37° Northeast  Level Estimated
12:34PM 66.7553 -134.4068 38° Northeast  Level Estimated
12:35PM 66.8603 -134.1996 38° Northeast  Level Estimated
12:36PM 66.9650 -133.9907 38° Northeast  Level Estimated
12:37PM 67.0695 -133.7799 38° Northeast  Level Estimated
12:38PM 67.1737 -133.5673 38° Northeast  Level Estimated
12:39PM 67.2776 -133.3528 39° Northeast  Level Estimated
12:40PM 67.3812 -133.1365 39° Northeast  Level Estimated
12:41PM 67.4845 -132.9183 39° Northeast  Level Estimated
12:42PM 67.5875 -132.6982 39° Northeast  Level Estimated
12:43PM 67.6902 -132.4762 39° Northeast  Level Estimated
12:44PM 67.7926 -132.2522 40° Northeast  Level Estimated
12:45PM 67.8947 -132.0263 40° Northeast  Level Estimated
12:46PM 67.9965 -131.7984 40° Northeast  Level Estimated
12:47PM 68.0979 -131.5684 40° Northeast  Level Estimated
12:48PM 68.1991 -131.3365 40° Northeast  Level Estimated
12:49PM 68.2999 -131.1024 41° Northeast  Level Estimated
12:50PM 68.4004 -130.8663 41° Northeast  Level Estimated
12:51PM 68.5005 -130.6282 41° Northeast  Level Estimated
12:52PM 68.6003 -130.3878 41° Northeast  Level Estimated
12:53PM 68.6998 -130.1454 41° Northeast  Level Estimated
12:54PM 68.7989 -129.9008 42° Northeast  Level Estimated
12:55PM 68.8976 -129.6540 42° Northeast  Level Estimated
12:56PM 68.9960 -129.4050 42° Northeast  Level Estimated
12:57PM 69.0941 -129.1537 42° Northeast  Level Estimated
12:58PM 69.1917 -128.9002 43° Northeast  Level Estimated
12:59PM 69.2890 -128.6444 43° Northeast  Level Estimated
01:00PM 69.3859 -128.3864 43° Northeast  Level Estimated
01:01PM 69.4824 -128.1259 43° Northeast  Level Estimated
01:02PM 69.5785 -127.8632 44° Northeast  Level Estimated
01:03PM 69.6743 -127.5980 44° Northeast  Level Estimated
01:04PM 69.7696 -127.3305 44° Northeast  Level Estimated
01:05PM 69.8645 -127.0605 44° Northeast  Level Estimated
01:06PM 69.9590 -126.7881 45° Northeast  Level Estimated
01:07PM 70.0531 -126.5133 45° Northeast  Level Estimated
01:08PM 70.1467 -126.2359 45° Northeast  Level Estimated
01:09PM 70.2400 -125.9560 45° Northeast  Level Estimated
01:10PM 70.3327 -125.6736 46° Northeast  Level Estimated
01:11PM 70.4251 -125.3886 46° Northeast  Level Estimated
01:12PM 70.5169 -125.1011 46° Northeast  Level Estimated
01:13PM 70.6084 -124.8109 46° Northeast  Level Estimated
01:14PM 70.6993 -124.5180 47° Northeast  Level Estimated
01:15PM 70.7898 -124.2226 47° Northeast  Level Estimated
01:16PM 70.8798 -123.9244 47° Northeast  Level Estimated
01:16PM 59.6667 -120.2667 49° Northeast 530 610 33,000  Level Edmonton Center
01:17PM 70.9694 -123.6235 48° Northeast  Level Estimated
01:17PM 59.6167 -120.0333 113° Southeast 470 541 33,000  Level Edmonton Center
01:18PM 71.0584 -123.3199 48° Northeast  Level Estimated
01:18PM 59.5833 -119.8000 106° East 450 518 33,000  Level Edmonton Center
01:19PM 71.1469 -123.0136 48° Northeast  Level Estimated
01:19PM 59.5333 -119.5500 111° Southeast 460 529 33,000  Level Edmonton Center
01:20PM 71.2350 -122.7044 48° Northeast  Level Estimated
01:20PM 59.5000 -119.3333 107° East 450 518 33,000  Level Edmonton Center
01:21PM 71.3225 -122.3925 49° Northeast  Level Estimated
01:21PM 59.4500 -119.1000 113° Southeast 440 506 33,000  Level Edmonton Center
01:22PM 71.4095 -122.0777 49° Northeast  Level Estimated
01:22PM 59.4000 -118.8833 114° Southeast 430 495 33,000  Level Edmonton Center
01:23PM 59.3667 -118.6333 105° East 440 506 33,000  Level Edmonton Center
01:24PM 59.3167 -118.4000 113° Southeast 430 495 33,000  Level Edmonton Center
01:25PM 59.2667 -118.1833 114° Southeast 440 506 33,000  Level Edmonton Center
01:26PM 59.2333 -117.9667 107° East 450 518 33,000  Level Edmonton Center
01:27PM 59.2000 -117.7167 104° East 440 506 33,000  Level Edmonton Center
01:28PM 59.2333 -117.5000 73° East 450 518 33,000  Level Edmonton Center
01:29PM 59.3167 -117.2833 53° Northeast 460 529 33,000  Level Edmonton Center
01:30PM 59.3833 -117.0833 57° Northeast 470 541 33,000  Level Edmonton Center
01:31PM 59.4500 -116.8333 62° Northeast 460 529 33,000  Level Edmonton Center
01:32PM 59.5333 -116.6167 53° Northeast 460 529 33,000  Level Edmonton Center
01:33PM 59.5833 -116.4000 65° Northeast 460 529 33,000  Level Edmonton Center
01:34PM 59.6500 -116.1833 59° Northeast 450 518 33,000  Level Edmonton Center
01:35PM 59.7167 -115.9667 59° Northeast 460 529 33,000  Level Edmonton Center
01:36PM 59.7833 -115.7500 58° Northeast 460 529 33,000  Level Edmonton Center
01:37PM 59.8667 -115.5333 52° Northeast 460 529 33,000  Level Edmonton Center
01:38PM 59.9167 -115.3167 65° Northeast 460 529 33,000  Level Edmonton Center
01:39PM 59.9833 -115.1000 58° Northeast 450 518 33,000  Level Edmonton Center
01:40PM 60.0500 -114.8833 58° Northeast 450 518 33,000  Level Edmonton Center
01:41PM 60.1167 -114.6667 58° Northeast 450 518 33,000  Level Edmonton Center
01:42PM 60.1667 -114.4333 67° East 450 518 33,000  Level Edmonton Center
01:43PM 60.2333 -114.2167 58° Northeast 450 518 33,000  Level Edmonton Center
01:44PM 60.3000 -113.9833 60° Northeast 450 518 33,000  Level Edmonton Center
01:45PM 60.3667 -113.7333 62° Northeast 450 518 33,000  Level Edmonton Center
01:46PM 60.4167 -113.5333 63° Northeast 450 518 33,000  Level Edmonton Center
01:47PM 60.4833 -113.3167 58° Northeast 450 518 33,000  Level Edmonton Center
01:48PM 60.5500 -113.0833 60° Northeast 450 518 33,000  Level Edmonton Center
01:49PM 60.6167 -112.8500 60° Northeast 450 518 33,000  Level Edmonton Center
01:50PM 60.6500 -112.6333 72° East 440 506 33,000  Level Edmonton Center
01:51PM 60.7167 -112.4000 60° Northeast 440 506 33,000  Level Edmonton Center
01:52PM 60.7833 -112.1667 60° Northeast 440 506 33,000  Level Edmonton Center
01:53PM 60.8333 -111.9667 63° Northeast 440 506 33,000  Level Edmonton Center
01:54PM 60.9000 -111.7333 59° Northeast 440 506 33,000  Level Edmonton Center
01:55PM 60.9500 -111.4667 69° East 440 506 33,000  Level Edmonton Center
01:56PM 61.0000 -111.2333 66° East 450 518 33,000  Level Edmonton Center
01:57PM 61.0667 -111.0000 59° Northeast 460 529 33,000  Level Edmonton Center
01:58PM 61.1333 -110.7667 59° Northeast 450 518 33,000  Level Edmonton Center
01:59PM 61.1833 -110.5167 67° East 460 529 33,000  Level Edmonton Center
02:00PM 61.2333 -110.2833 66° East 460 529 33,000  Level Edmonton Center
02:01PM 61.2833 -110.0500 66° East 460 529 33,000  Level Edmonton Center
02:02PM 61.3500 -109.8167 59° Northeast 460 529 33,000  Level Edmonton Center
02:03PM 61.4167 -109.5667 61° Northeast 460 529 33,000  Level Edmonton Center
02:04PM 61.4500 -109.3333 73° East 470 541 33,000  Level Edmonton Center
02:05PM 61.5167 -109.0500 64° Northeast 470 541 33,000  Level Edmonton Center
02:06PM 61.5667 -108.8000 67° East 470 541 33,000  Level Edmonton Center
02:07PM 61.6333 -108.5333 62° Northeast 470 541 33,000  Level Edmonton Center
02:08PM 61.6833 -108.2833 67° East 450 518 33,000  Level Edmonton Center
02:09PM 61.7167 -108.0333 74° East 470 541 33,000  Level Edmonton Center
02:10PM 61.7833 -107.7833 60° Northeast 470 541 33,000  Level Edmonton Center
02:11PM 61.8333 -107.5500 65° Northeast 470 541 33,000  Level Edmonton Center
02:12PM 61.8833 -107.2667 69° East 470 541 33,000  Level Edmonton Center
02:13PM 61.9500 -107.0167 60° Northeast 470 541 33,000  Level Edmonton Center
02:14PM 61.9833 -106.7667 74° East 470 541 33,000  Level Edmonton Center
02:15PM 62.0333 -106.5167 67° East 470 541 33,000  Level Edmonton Center
02:16PM 62.0833 -106.2167 70° East 470 541 33,000  Level Edmonton Center
02:17PM 62.1500 -105.9667 60° Northeast 460 529 33,000  Level Edmonton Center
02:18PM 62.2000 -105.7167 67° East 460 529 33,000  Level Edmonton Center
02:19PM 62.2500 -105.4667 67° East 460 529 33,000  Level Edmonton Center
02:20PM 62.2833 -105.1667 76° East 460 529 33,000  Level Edmonton Center
02:21PM 62.3333 -104.9167 67° East 450 518 33,000  Level Edmonton Center
02:22PM 62.3833 -104.7000 63° Northeast 450 518 33,000  Level Edmonton Center
02:23PM 62.4167 -104.4500 74° East 440 506 33,000  Level Edmonton Center
02:24PM 62.4667 -104.1833 68° East 440 506 33,000  Level Edmonton Center
02:25PM 62.5167 -103.9333 66° East 440 506 33,000  Level Edmonton Center
02:26PM 62.5500 -103.6667 75° East 440 506 33,000  Level Edmonton Center
02:28PM 62.6511 -103.3424 56° Northeast  Level Estimated
02:35PM 63.1507 -101.6674 56° Northeast  Level Estimated
02:36PM 63.2204 -101.4234 58° Northeast  Level Estimated
02:37PM 63.2897 -101.1783 58° Northeast  Level Estimated
02:38PM 63.3586 -100.9320 58° Northeast  Level Estimated
02:39PM 63.4271 -100.6845 58° Northeast  Level Estimated
02:40PM 63.4952 -100.4359 58° Northeast  Level Estimated
02:41PM 63.5628 -100.1860 59° Northeast  Level Estimated
02:42PM 63.6299 -99.9350 59° Northeast  Level Estimated
02:43PM 63.6967 -99.6827 59° Northeast  Level Estimated
02:44PM 63.7629 -99.4293 59° Northeast  Level Estimated
02:45PM 63.8288 -99.1747 60° Northeast  Level Estimated
02:46PM 63.8942 -98.9189 60° Northeast  Level Estimated
02:47PM 63.9591 -98.6619 60° Northeast  Level Estimated
02:48PM 64.0236 -98.4038 60° Northeast  Level Estimated
02:49PM 64.0876 -98.1444 60° Northeast  Level Estimated
02:50PM 64.1511 -97.8838 61° Northeast  Level Estimated
02:51PM 64.2142 -97.6221 61° Northeast  Level Estimated
02:52PM 64.2768 -97.3591 61° Northeast  Level Estimated
02:53PM 64.3390 -97.0950 61° Northeast  Level Estimated
02:54PM 64.4007 -96.8297 62° Northeast  Level Estimated
02:55PM 64.4618 -96.5632 62° Northeast  Level Estimated
02:56PM 64.5225 -96.2955 62° Northeast  Level Estimated
02:57PM 64.5827 -96.0266 62° Northeast  Level Estimated
02:58PM 64.6425 -95.7565 63° Northeast  Level Estimated
02:59PM 64.7017 -95.4853 63° Northeast  Level Estimated
03:00PM 64.7604 -95.2128 63° Northeast  Level Estimated
03:01PM 64.8186 -94.9392 63° Northeast  Level Estimated
03:02PM 64.8764 -94.6644 64° Northeast  Level Estimated
03:03PM 64.9336 -94.3884 64° Northeast  Level Estimated
03:04PM 64.9903 -94.1112 64° Northeast  Level Estimated
03:05PM 65.0464 -93.8329 64° Northeast  Level Estimated
03:06PM 65.1021 -93.5534 65° Northeast  Level Estimated
03:07PM 65.1572 -93.2727 65° Northeast  Level Estimated
03:08PM 65.2119 -92.9909 65° Northeast  Level Estimated
03:09PM 65.2659 -92.7079 65° Northeast  Level Estimated
03:10PM 65.3195 -92.4237 66° East  Level Estimated
03:11PM 65.3725 -92.1384 66° East  Level Estimated
03:12PM 65.4250 -91.8520 66° East  Level Estimated
03:13PM 65.4769 -91.5644 66° East  Level Estimated
03:14PM 65.5283 -91.2757 67° East  Level Estimated
03:15PM 65.5791 -90.9858 67° East  Level Estimated
03:16PM 65.6294 -90.6948 67° East  Level Estimated
03:17PM 65.6791 -90.4027 67° East  Level Estimated
03:18PM 65.7283 -90.1094 68° East  Level Estimated
03:19PM 65.7768 -89.8151 68° East  Level Estimated
03:20PM 65.8249 -89.5196 68° East  Level Estimated
03:21PM 65.8723 -89.2231 69° East  Level Estimated
03:22PM 65.9192 -88.9254 69° East  Level Estimated
03:23PM 65.9655 -88.6267 69° East  Level Estimated
03:24PM 66.0113 -88.3264 69° East  Level Estimated
03:25PM 66.0565 -88.0251 70° East  Level Estimated
03:26PM 66.1011 -87.7227 70° East  Level Estimated
03:27PM 66.1451 -87.4192 70° East  Level Estimated
03:28PM 66.1886 -87.1147 70° East  Level Estimated
03:29PM 66.2314 -86.8091 71° East  Level Estimated
03:30PM 66.2736 -86.5025 71° East  Level Estimated
03:31PM 66.3152 -86.1949 71° East  Level Estimated
03:32PM 66.3562 -85.8863 72° East  Level Estimated
03:33PM 66.3966 -85.5767 72° East  Level Estimated
03:34PM 66.4364 -85.2660 72° East  Level Estimated
03:35PM 66.4755 -84.9544 72° East  Level Estimated
03:36PM 66.5141 -84.6418 73° East  Level Estimated
03:37PM 66.5520 -84.3283 73° East  Level Estimated
03:38PM 66.5893 -84.0138 73° East  Level Estimated
03:39PM 66.6259 -83.6984 74° East  Level Estimated
03:40PM 66.6619 -83.3820 74° East  Level Estimated
03:41PM 66.6973 -83.0648 74° East  Level Estimated
03:42PM 66.7321 -82.7466 74° East  Level Estimated
03:43PM 66.7662 -82.4275 75° East  Level Estimated
03:44PM 66.7996 -82.1076 75° East  Level Estimated
03:45PM 66.8324 -81.7868 75° East  Level Estimated
03:46PM 66.8646 -81.4651 76° East  Level Estimated
03:47PM 66.8961 -81.1426 76° East  Level Estimated
03:48PM 66.9269 -80.8193 76° East  Level Estimated
03:49PM 66.9571 -80.4952 76° East  Level Estimated
03:50PM 66.9866 -80.1702 77° East  Level Estimated
03:51PM 67.0155 -79.8446 77° East  Level Estimated
03:52PM 67.0436 -79.5181 77° East  Level Estimated
03:53PM 67.0712 -79.1909 78° East  Level Estimated
03:54PM 67.0980 -78.8629 78° East  Level Estimated
03:55PM 67.1242 -78.5342 78° East  Level Estimated
03:56PM 67.1497 -78.2049 79° East  Level Estimated
03:57PM 67.1745 -77.8748 79° East  Level Estimated
03:58PM 67.1986 -77.5441 79° East  Level Estimated
03:59PM 67.2221 -77.2127 79° East  Level Estimated
04:00PM 67.2448 -76.8807 80° East  Level Estimated
04:01PM 67.2669 -76.5480 80° East  Level Estimated
04:02PM 67.2883 -76.2148 80° East  Level Estimated
04:02PM 64.2167 -75.9000 82° East 480 552 35,000  Level Edmonton Center
04:03PM 67.3090 -75.8809 81° East  Level Estimated
04:03PM 64.2000 -75.6167 98° East 480 552 35,000  Level Edmonton Center
04:04PM 67.3290 -75.5465 81° East  Level Estimated
04:04PM 64.1667 -75.3000 103° East 470 541 35,000  Level Edmonton Center
04:05PM 67.3483 -75.2116 81° East  Level Estimated
04:05PM 64.2167 -75.3000 360° North 480 552 35,000  Level Montreal Center
04:06PM 67.3669 -74.8761 82° East  Level Estimated
04:06PM 64.2167 -75.0000 90° East 470 541 35,000  Level Montreal Center
04:07PM 67.3848 -74.5401 82° East  Level Estimated
04:07PM 64.2000 -74.6833 97° East 470 541 35,000  Level Montreal Center
04:08PM 67.4020 -74.2036 82° East  Level Estimated
04:08PM 64.1833 -74.3833 97° East 470 541 35,000  Level Montreal Center
04:09PM 64.1667 -74.0833 97° East 470 541 35,000  Level Montreal Center
04:10PM 64.1500 -73.7667 97° East 470 541 35,000  Level Montreal Center
04:11PM 64.1333 -73.5000 98° East 470 541 35,000  Level Montreal Center
04:12PM 64.1167 -73.2000 97° East 470 541 35,000  Level Montreal Center
04:13PM 64.1000 -72.9000 97° East 480 552 35,000  Level Montreal Center
04:14PM 64.0833 -72.6000 97° East 480 552 35,000  Level Montreal Center
04:15PM 64.0667 -72.2833 97° East 480 552 35,000  Level Montreal Center
04:16PM 64.0500 -71.9833 97° East 480 552 35,000  Level Montreal Center
04:18PM 64.0167 -71.5667 100° East 480 552 35,000  Level Gander Center
04:18PM 63.9500 -71.1167 108° East 480 552 35,000  Level Edmonton Center
04:19PM 63.9167 -70.8000 103° East 480 552 35,000  Level Edmonton Center
04:20PM 63.9000 -70.5167 97° East 480 552 35,000  Level Edmonton Center
04:21PM 63.8833 -70.2000 97° East 480 552 35,000  Level Edmonton Center
04:22PM 63.8667 -69.9167 97° East 490 564 35,000  Level Edmonton Center
04:23PM 63.8333 -69.6000 103° East 490 564 35,000 180 Level Edmonton Center
04:24PM 63.8167 -69.2833 97° East 490 564 35,400 480 Climbing Edmonton Center
04:25PM 63.7833 -69.0167 106° East 490 564 36,000 300 Climbing Edmonton Center
04:26PM 63.7500 -68.7000 103° East 480 552 36,000  Level Edmonton Center
04:27PM 63.7333 -68.4167 97° East 480 552 36,000  Level Edmonton Center
04:29PM 63.7833 -68.2833 50° Northeast 480 552 36,000  Level Gander Center
04:30PM 63.8000 -68.0000 82° East 480 552 36,000  Level Gander Center
04:31PM 63.8167 -67.6500 84° East 480 552 36,000  Level Gander Center
04:32PM 63.8333 -67.4000 81° East 480 552 36,000  Level Gander Center
04:33PM 63.8500 -67.1000 83° East 480 552 36,000  Level Gander Center
04:34PM 63.8667 -66.8000 83° East 480 552 36,000  Level Gander Center
04:35PM 63.8833 -66.5000 83° East 480 552 36,000  Level Gander Center
04:36PM 63.9000 -66.2000 83° East 490 564 36,000  Level Gander Center
04:37PM 63.9167 -65.9000 83° East 490 564 36,000  Level Gander Center
04:38PM 63.9333 -65.6167 82° East 490 564 36,000  Level Gander Center
04:39PM 63.9500 -65.3167 83° East 490 564 36,000  Level Gander Center
04:40PM 63.9500 -64.9667 90° East 490 564 36,000  Level Gander Center
04:41PM 63.9667 -64.6667 83° East 490 564 36,000  Level Gander Center
04:42PM 63.9833 -64.3333 83° East 490 564 36,000  Level Gander Center
04:43PM 63.9833 -64.0333 90° East 490 564 36,000  Level Gander Center
04:44PM 64.0167 -63.7333 76° East 490 564 36,000  Level Gander Center
04:45PM 64.0167 -63.4333 90° East 490 564 36,000  Level Gander Center
04:46PM 64.0167 -63.1000 90° East 490 564 36,000  Level Gander Center
04:47PM 64.0167 -62.7833 90° East 490 564 36,000  Level Gander Center
04:48PM 64.0167 -62.4833 90° East 490 564 36,000  Level Gander Center
04:49PM 64.0333 -62.1833 83° East 490 564 36,000  Level Gander Center
04:50PM 64.0333 -61.8833 90° East 490 564 36,000  Level Gander Center
04:51PM 64.0333 -61.5833 90° East 490 564 36,000  Level Gander Center
04:52PM 64.0333 -61.2833 90° East 490 564 36,000  Level Gander Center
04:53PM 64.0333 -60.9833 90° East 490 564 36,000  Level Gander Center
04:54PM 64.0333 -60.6333 90° East 480 552 36,000  Level Gander Center
04:55PM 64.0333 -60.3333 90° East 490 564 36,000  Level Gander Center
04:56PM 64.0167 -60.0333 97° East 480 552 36,000  Level Gander Center
04:57PM 64.0000 -60.0000 98° East 483 556 36,000  Level ETMS Enhanced Traffic Management System
04:57PM 64.0000 -59.7333 97° East 480 552 36,000  Level Gander Center
04:58PM 63.9833 -59.4333 98° East 490 564 36,000  Level Gander Center
04:59PM 63.9667 -59.1333 97° East 490 564 36,000  Level Gander Center
05:00PM 63.9500 -58.8333 97° East 490 564 36,000  Level Gander Center
05:01PM 63.9167 -58.5333 104° East 490 564 36,000  Level Gander Center
05:02PM 63.9000 -58.2333 97° East 490 564 36,000  Level Gander Center
05:03PM 63.9000 -57.9333 90° East 490 564 36,000  Level Gander Center
05:04PM 63.8500 -57.6500 112° Southeast 490 564 36,000  Level Gander Center
05:05PM 63.8500 -57.3500 90° East 490 564 36,000  Level Gander Center
05:06PM 63.8167 -57.0500 104° East 490 564 36,000  Level Gander Center
05:07PM 63.8000 -56.7167 96° East 490 564 36,000  Level Gander Center
05:08PM 63.7500 -56.4167 111° Southeast 500 575 36,000  Level Gander Center
05:09PM 63.7333 -56.1167 97° East 500 575 36,000  Level Gander Center
05:10PM 63.7000 -55.8333 105° East 490 564 36,000  Level Gander Center
05:11PM 63.6833 -55.5000 96° East 480 552 36,000  Level Gander Center
05:17PM 63.5030 -53.7890 96° East 495 570 36,000  Level FlightAware
05:17PM 63.4800 -53.5900 104° East 496 571 36,000  Level FlightAware
05:18PM 63.4540 -53.3640 104° East 496 571 36,000  Level FlightAware
05:19PM 63.4350 -53.1980 104° East 496 571 36,000  Level FlightAware
05:19PM 63.4070 -52.9590 105° East 496 571 36,000  Level FlightAware
05:20PM 63.3830 -52.7590 105° East 496 571 36,000  Level FlightAware
05:21PM 63.3560 -52.5360 105° East 496 571 36,000  Level FlightAware
05:21PM 63.3310 -52.3380 106° East 497 572 36,000  Level FlightAware
05:22PM 63.3050 -52.1290 105° East 497 572 36,000  Level FlightAware
05:23PM 63.2790 -51.9230 106° East 497 572 36,000  Level FlightAware
05:24PM 63.2540 -51.7260 106° East 498 573 36,000  Level FlightAware
05:24PM 63.2270 -51.5180 106° East 497 572 36,000  Level FlightAware
05:25PM 63.2010 -51.3200 106° East 497 572 36,000  Level FlightAware
05:26PM 63.1740 -51.1230 107° East 497 572 36,000  Level FlightAware
05:26PM 63.1440 -50.8980 106° East 497 572 36,000  Level FlightAware
05:27PM 63.1200 -50.7190 106° East 496 571 36,000  Level FlightAware
05:28PM 63.0990 -50.5650 107° East 497 572 36,000  Level FlightAware
05:28PM 63.0660 -50.3330 107° East 496 571 36,000  Level FlightAware
05:29PM 63.0260 -50.0500 107° East 497 572 36,000  Level FlightAware
05:30PM 62.9870 -49.7840 108° East 497 572 36,000  Level FlightAware
05:31PM 62.9630 -49.6240 108° East 497 572 36,000  Level FlightAware
05:32PM 62.9420 -49.4770 107° East 497 572 36,000  Level FlightAware
05:33PM 62.9050 -49.2280 108° East 497 572 36,000  Level FlightAware
05:33PM 62.8830 -49.0810 108° East 497 572 36,000  Level FlightAware
05:34PM 62.8540 -48.8900 108° East 497 572 36,000  Level FlightAware
05:35PM 62.8330 -48.7430 107° East 497 572 36,000  Level FlightAware
05:35PM 62.8040 -48.5480 108° East 497 572 36,000  Level FlightAware
05:36PM 62.7820 -48.4020 108° East 497 572 36,000  Level FlightAware
05:37PM 62.7600 -48.2550 108° East 497 572 36,000  Level FlightAware
05:37PM 62.7310 -48.0600 108° East 497 572 36,000  Level FlightAware
05:38PM 62.7090 -47.9140 108° East 497 572 36,000  Level FlightAware
05:39PM 62.6800 -47.7160 108° East 497 572 36,000  Level FlightAware
05:39PM 62.6580 -47.5700 108° East 497 572 36,000  Level FlightAware
05:42PM 62.5583 -47.0272 112° Southeast  Level FlightAware Approximate
05:43PM 62.5105 -46.7720 112° Southeast  Level FlightAware Approximate
05:44PM 62.4622 -46.5176 112° Southeast  Level FlightAware Approximate
05:45PM 62.4135 -46.2641 112° Southeast  Level FlightAware Approximate
05:46PM 62.3643 -46.0114 113° Southeast  Level FlightAware Approximate
05:47PM 62.3146 -45.7595 113° Southeast  Level FlightAware Approximate
05:48PM 62.2645 -45.5085 113° Southeast  Level FlightAware Approximate
05:49PM 62.2139 -45.2583 113° Southeast  Level FlightAware Approximate
05:50PM 62.1629 -45.0089 114° Southeast  Level FlightAware Approximate
05:51PM 62.1115 -44.7604 114° Southeast  Level FlightAware Approximate
05:52PM 62.0596 -44.5127 114° Southeast  Level FlightAware Approximate
05:53PM 62.0072 -44.2659 114° Southeast  Level FlightAware Approximate
05:54PM 61.9544 -44.0200 114° Southeast  Level FlightAware Approximate
05:55PM 61.9012 -43.7748 115° Southeast  Level FlightAware Approximate
05:56PM 61.8475 -43.5306 115° Southeast  Level FlightAware Approximate
05:57PM 61.7934 -43.2872 115° Southeast  Level FlightAware Approximate
05:58PM 61.7389 -43.0446 115° Southeast  Level FlightAware Approximate
05:59PM 61.6840 -42.8029 116° Southeast  Level FlightAware Approximate
06:00PM 61.6286 -42.5621 116° Southeast  Level FlightAware Approximate
06:01PM 61.5728 -42.3221 116° Southeast  Level FlightAware Approximate
06:02PM 61.5166 -42.0830 116° Southeast  Level FlightAware Approximate
06:03PM 61.4600 -41.8448 116° Southeast  Level FlightAware Approximate
06:04PM 61.4029 -41.6074 117° Southeast  Level FlightAware Approximate
06:05PM 61.3455 -41.3709 117° Southeast  Level FlightAware Approximate
06:06PM 61.2876 -41.1353 117° Southeast  Level FlightAware Approximate
06:07PM 61.2294 -40.9006 117° Southeast  Level FlightAware Approximate
06:08PM 61.1707 -40.6667 117° Southeast  Level FlightAware Approximate
06:09PM 61.1116 -40.4337 118° Southeast  Level FlightAware Approximate
06:10PM 61.0521 -40.2015 118° Southeast  Level FlightAware Approximate
06:11PM 60.9951 -39.9680 108° East  Level FlightAware Approximate
06:12PM 60.9563 -39.7187 108° East  Level FlightAware Approximate
06:13PM 60.9171 -39.4700 108° East  Level FlightAware Approximate
06:14PM 60.8774 -39.2218 108° East  Level FlightAware Approximate
06:15PM 60.8373 -38.9743 108° East  Level FlightAware Approximate
06:16PM 60.7967 -38.7275 109° East  Level FlightAware Approximate
06:17PM 60.7557 -38.4812 109° East  Level FlightAware Approximate
06:18PM 60.7142 -38.2356 109° East  Level FlightAware Approximate
06:19PM 60.6723 -37.9906 109° East  Level FlightAware Approximate
06:20PM 60.6299 -37.7463 109° East  Level FlightAware Approximate
06:21PM 60.5871 -37.5026 110° East  Level FlightAware Approximate
06:22PM 60.5438 -37.2595 110° East  Level FlightAware Approximate
06:23PM 60.5001 -37.0171 110° East  Level FlightAware Approximate
06:24PM 60.4566 -36.7749 110° East  Level FlightAware Approximate
06:25PM 60.4126 -36.5334 110° East  Level FlightAware Approximate
06:26PM 60.3682 -36.2925 110° East  Level FlightAware Approximate
06:27PM 60.3233 -36.0523 111° Southeast  Level FlightAware Approximate
06:28PM 60.2781 -35.8127 111° Southeast  Level FlightAware Approximate
06:29PM 60.2324 -35.5738 111° Southeast  Level FlightAware Approximate
06:30PM 60.1862 -35.3355 111° Southeast  Level FlightAware Approximate
06:31PM 60.1397 -35.0980 111° Southeast  Level FlightAware Approximate
06:32PM 60.0927 -34.8611 112° Southeast  Level FlightAware Approximate
06:33PM 60.0453 -34.6249 112° Southeast  Level FlightAware Approximate
06:34PM 59.9975 -34.3894 112° Southeast  Level FlightAware Approximate
06:35PM 59.9492 -34.1545 112° Southeast  Level FlightAware Approximate
06:36PM 59.9006 -33.9203 112° Southeast  Level FlightAware Approximate
06:37PM 59.8515 -33.6869 113° Southeast  Level FlightAware Approximate
06:38PM 59.8020 -33.4541 113° Southeast  Level FlightAware Approximate
06:39PM 59.7521 -33.2220 113° Southeast  Level FlightAware Approximate
06:40PM 59.7018 -32.9906 113° Southeast  Level FlightAware Approximate
06:41PM 59.6511 -32.7599 113° Southeast  Level FlightAware Approximate
06:42PM 59.6000 -32.5299 114° Southeast  Level FlightAware Approximate
06:43PM 59.5485 -32.3006 114° Southeast  Level FlightAware Approximate
06:44PM 59.4966 -32.0720 114° Southeast  Level FlightAware Approximate
06:45PM 59.4442 -31.8441 114° Southeast  Level FlightAware Approximate
06:46PM 59.3915 -31.6169 114° Southeast  Level FlightAware Approximate
06:47PM 59.3384 -31.3905 115° Southeast  Level FlightAware Approximate
06:47PM 59.0000 -30.0000 106° East 509 586 36,000  Level ETMS Enhanced Traffic Management System
06:48PM 59.2850 -31.1647 115° Southeast  Level FlightAware Approximate
06:49PM 59.2311 -30.9396 115° Southeast  Level FlightAware Approximate
06:50PM 59.1768 -30.7153 115° Southeast  Level FlightAware Approximate
06:51PM 59.1221 -30.4917 115° Southeast  Level FlightAware Approximate
06:52PM 59.0671 -30.2688 116° Southeast  Level FlightAware Approximate
06:53PM 59.0117 -30.0466 116° Southeast  Level FlightAware Approximate
06:54PM 58.6195 -27.6543 108° East 509 586 36,000  Level FlightAware Transoceanic
06:55PM 58.5747 -27.3969 109° East 509 586 36,000  Level FlightAware Transoceanic
06:56PM 58.5293 -27.1401 109° East 509 586 36,000  Level FlightAware Transoceanic
06:57PM 58.4834 -26.8841 109° East 509 586 36,000  Level FlightAware Transoceanic
06:58PM 58.4370 -26.6287 109° East 509 586 36,000  Level FlightAware Transoceanic
06:59PM 58.3900 -26.3739 109° East 509 586 36,000  Level FlightAware Transoceanic
07:00PM 58.3426 -26.1199 110° East 509 586 36,000  Level FlightAware Transoceanic
07:01PM 58.2947 -25.8665 110° East 509 586 36,000  Level FlightAware Transoceanic
07:02PM 58.2463 -25.6138 110° East 509 586 36,000  Level FlightAware Transoceanic
07:03PM 58.1973 -25.3619 110° East 509 586 36,000  Level FlightAware Transoceanic
07:04PM 58.1479 -25.1106 111° Southeast 509 586 36,000  Level FlightAware Transoceanic
07:05PM 58.0980 -24.8600 111° Southeast 509 586 36,000  Level FlightAware Transoceanic
07:06PM 58.0476 -24.6101 111° Southeast 509 586 36,000  Level FlightAware Transoceanic
07:07PM 57.9967 -24.3609 111° Southeast 509 586 36,000  Level FlightAware Transoceanic
07:08PM 57.9454 -24.1124 111° Southeast 509 586 36,000  Level FlightAware Transoceanic
07:09PM 57.8935 -23.8647 112° Southeast 509 586 36,000  Level FlightAware Transoceanic
07:10PM 57.8411 -23.6177 112° Southeast 509 586 36,000  Level FlightAware Transoceanic
07:11PM 57.7883 -23.3713 112° Southeast 509 586 36,000  Level FlightAware Transoceanic
07:12PM 57.7350 -23.1258 112° Southeast 509 586 36,000  Level FlightAware Transoceanic
07:13PM 57.6813 -22.8809 112° Southeast 509 586 36,000  Level FlightAware Transoceanic
07:14PM 57.6270 -22.6367 113° Southeast 509 586 36,000  Level FlightAware Transoceanic
07:15PM 57.5723 -22.3934 113° Southeast 509 586 36,000  Level FlightAware Transoceanic
07:16PM 57.5172 -22.1507 113° Southeast 509 586 36,000  Level FlightAware Transoceanic
07:17PM 57.4615 -21.9087 113° Southeast 509 586 36,000  Level FlightAware Transoceanic
07:18PM 57.4054 -21.6675 113° Southeast 509 586 36,000  Level FlightAware Transoceanic
07:19PM 57.3489 -21.4271 114° Southeast 509 586 36,000  Level FlightAware Transoceanic
07:20PM 57.2919 -21.1874 114° Southeast 509 586 36,000  Level FlightAware Transoceanic
07:21PM 57.2344 -20.9484 114° Southeast 509 586 36,000  Level FlightAware Transoceanic
07:22PM 57.1765 -20.7102 114° Southeast 509 586 36,000  Level FlightAware Transoceanic
07:23PM 57.1181 -20.4727 114° Southeast 509 586 36,000  Level FlightAware Transoceanic
07:24PM 57.0593 -20.2360 115° Southeast 509 586 36,000  Level FlightAware Transoceanic
07:25PM 57.0061 -20.0240 115° Southeast  Level FlightAware Approximate
07:26PM 56.9525 -19.8126 115° Southeast  Level FlightAware Approximate
07:27PM 56.9512 -19.8435 120° Southeast  Level FlightAware Approximate
07:28PM 56.8879 -19.6418 120° Southeast  Level FlightAware Approximate
07:29PM 56.8242 -19.4408 120° Southeast  Level FlightAware Approximate
07:30PM 56.7601 -19.2404 120° Southeast  Level FlightAware Approximate
07:31PM 56.6958 -19.0408 120° Southeast  Level FlightAware Approximate
07:32PM 56.6311 -18.8418 121° Southeast  Level FlightAware Approximate
07:33PM 56.5662 -18.6435 121° Southeast  Level FlightAware Approximate
07:34PM 56.5009 -18.4459 121° Southeast  Level FlightAware Approximate
07:35PM 56.4353 -18.2489 121° Southeast  Level FlightAware Approximate
07:36PM 56.3694 -18.0527 121° Southeast  Level FlightAware Approximate
07:37PM 56.3032 -17.8571 121° Southeast  Level FlightAware Approximate
07:38PM 56.2370 -17.6618 121° Southeast  Level FlightAware Approximate
07:39PM 56.1710 -17.4667 121° Southeast  Level FlightAware Approximate
07:40PM 56.1046 -17.2722 121° Southeast  Level FlightAware Approximate
07:41PM 56.0380 -17.0784 122° Southeast  Level FlightAware Approximate
07:42PM 55.9711 -16.8853 122° Southeast  Level FlightAware Approximate
07:43PM 55.9039 -16.6929 122° Southeast  Level FlightAware Approximate
07:44PM 55.8363 -16.5011 122° Southeast  Level FlightAware Approximate
07:45PM 55.7685 -16.3100 122° Southeast  Level FlightAware Approximate
07:46PM 55.7004 -16.1196 122° Southeast  Level FlightAware Approximate
07:47PM 55.6320 -15.9298 123° Southeast  Level FlightAware Approximate
07:48PM 55.5633 -15.7407 123° Southeast  Level FlightAware Approximate
07:49PM 55.4943 -15.5522 123° Southeast  Level FlightAware Approximate
07:50PM 55.4250 -15.3645 123° Southeast  Level FlightAware Approximate
07:51PM 55.3554 -15.1773 123° Southeast  Level FlightAware Approximate
07:51PM 55.4880 -13.5910 123° Southeast 475 547 36,000  Level FlightAware
07:52PM 55.2855 -14.9908 123° Southeast  Level FlightAware Approximate
07:52PM 55.4210 -13.4560 131° Southeast 473 544 36,000  Level FlightAware
07:53PM 55.3620 -13.3330 130° Southeast 473 544 36,000  Level FlightAware
07:54PM 55.2730 -13.1610 132° Southeast 473 544 36,000  Level FlightAware
07:54PM 55.2210 -13.0590 132° Southeast 478 550 36,000  Level FlightAware
07:55PM 55.1550 -12.9300 132° Southeast 478 550 36,000  Level FlightAware
07:56PM 55.0950 -12.8130 132° Southeast 479 551 36,000  Level FlightAware
07:56PM 55.0440 -12.7130 132° Southeast 479 551 36,000  Level FlightAware
07:57PM 54.9850 -12.5980 132° Southeast 480 552 36,000  Level FlightAware
07:58PM 54.9190 -12.4720 132° Southeast 481 554 36,000  Level FlightAware
07:58PM 54.8640 -12.3670 132° Southeast 481 554 36,000  Level FlightAware
07:59PM 54.7890 -12.2250 132° Southeast 482 555 36,000  Level FlightAware
08:00PM 54.7300 -12.1130 132° Southeast 478 550 36,000  Level FlightAware
08:00PM 54.6590 -11.9810 133° Southeast 478 550 36,000  Level FlightAware
08:01PM 54.5750 -11.8240 133° Southeast 479 551 36,000  Level FlightAware
08:02PM 54.5070 -11.6980 133° Southeast 480 552 36,000  Level FlightAware
08:03PM 54.4450 -11.5850 133° Southeast 480 552 36,000  Level FlightAware
08:03PM 54.3900 -11.4830 133° Southeast 481 554 36,000  Level FlightAware
08:04PM 54.3230 -11.3620 133° Southeast 481 554 36,000  Level FlightAware
08:05PM 54.2690 -11.2630 133° Southeast 480 552 36,000  Level FlightAware
08:05PM 54.1980 -11.1360 134° Southeast 485 558 36,000  Level FlightAware
08:06PM 54.1290 -11.0130 134° Southeast 484 557 36,000 -360 Level FlightAware
08:07PM 54.0680 -10.9040 134° Southeast 471 542 35,500 -1,800 Descending FlightAware
08:08PM 54.0010 -10.7850 134° Southeast 469 540 33,500 -2,700 Descending FlightAware
08:08PM 53.9460 -10.6870 134° Southeast 471 542 31,900 -2,460 Descending FlightAware
08:09PM 53.8850 -10.5810 134° Southeast 459 528 30,400 -2,160 Descending FlightAware
08:10PM 53.8260 -10.4780 134° Southeast 443 510 29,000 -2,100 Descending FlightAware
08:10PM 53.7690 -10.3790 134° Southeast 442 509 27,600 -2,100 Descending FlightAware
08:11PM 53.7050 -10.2680 134° Southeast 435 501 26,000 -2,100 Descending FlightAware
08:12PM 53.6420 -10.1610 135° Southeast 422 486 24,500 -2,040 Descending FlightAware
08:12PM 53.5880 -10.0680 134° Southeast 413 475 23,200 -1,980 Descending FlightAware
08:13PM 53.5330 -9.9750 135° Southeast 410 472 21,900 -1,920 Descending FlightAware
08:14PM 53.4880 -9.8990 135° Southeast 397 457 20,800 -1,800 Descending FlightAware
08:14PM 53.4300 -9.8010 135° Southeast 388 447 19,500 -1,800 Descending FlightAware
08:15PM 53.3860 -9.7270 135° Southeast 386 444 18,400 -1,800 Descending FlightAware
08:16PM 53.3420 -9.6530 135° Southeast 373 429 17,400 -1,800 Descending FlightAware
08:16PM 53.2800 -9.5510 135° Southeast 369 425 15,900 -1,740 Descending FlightAware
08:17PM 53.2380 -9.4620 128° Southeast 365 420 14,800 -1,980 Descending FlightAware
08:18PM 53.1990 -9.3530 121° Southeast 370 426 13,100 -2,280 Descending FlightAware
08:18PM 53.1690 -9.2690 121° Southeast 368 423 11,800 -1,980 Descending FlightAware
08:19PM 53.1290 -9.1610 122° Southeast 358 412 10,400 -1,800 Descending FlightAware
08:20PM 53.1090 -9.1060 121° Southeast 348 400 9,700 -1,500 Descending FlightAware
08:20PM 53.0790 -9.0250 122° Southeast 301 346 8,900 -1,320 Descending FlightAware
08:21PM 53.0620 -8.9810 123° Southeast 280 322 8,400 -1,800 Descending FlightAware
08:21PM 53.0400 -8.9210 121° Southeast 283 326 7,300 -1,620 Descending FlightAware
08:22PM 53.0150 -8.8540 122° Southeast 280 322 6,600 -1,140 Descending FlightAware
08:22PM 52.9960 -8.8030 122° Southeast 272 313 6,100 -1,260 Descending FlightAware
08:23PM 52.9730 -8.7600 132° Southeast 268 308 5,500 -1,200 Descending FlightAware
08:23PM 52.9450 -8.7220 141° Southeast 257 296 5,000 -1,200 Descending FlightAware
08:24PM 52.9230 -8.6930 142° Southeast 256 295 4,400 -900 Descending FlightAware
08:24PM 52.8790 -8.6340 141° Southeast 253 291 3,900 -660 Descending FlightAware
08:27PM 52.7020 -8.9248 225° Southwest  Level Estimated
08:28PM 52.7020 -8.9248 138° Southeast  Level Estimated
08:29PM 52.7020 -8.9248 138° Southeast  Level Estimated
08:30PM 52.7020 -8.9248 138° Southeast  Level Estimated
08:31PM 52.7020 -8.9248 138° Southeast  Level Estimated
08:32PM 52.7020 -8.9248 138° Southeast  Level Estimated
08:33PM 52.7020 -8.9248 138° Southeast  Level Estimated
08:34PM 52.7020 -8.9248 138° Southeast  Level Estimated
08:35PM 52.7020 -8.9248 138° Southeast  Level Estimated
08:36PM 52.7020 -8.9248 138° Southeast  Level Estimated
08:37PM 52.7020 -8.9248 138° Southeast  Level Estimated
08:38PM 52.7020 -8.9248 138° Southeast  Level Estimated
08:39PM 52.7020 -8.9248 138° Southeast  Level Estimated
08:40PM 52.7020 -8.9248 138° Southeast  Level Estimated
08:41PM 52.7020 -8.9248 138° Southeast  Level Estimated
08:42PM 52.7020 -8.9248 138° Southeast  Level Estimated
08:43PM 52.7020 -8.9248 138° Southeast  Level Estimated
08:44PM 52.7020 -8.9248 138° Southeast  Level Estimated
08:45PM 52.7020 -8.9248 138° Southeast  Level Estimated
08:46PM 52.7020 -8.9248 138° Southeast  Level Estimated
08:47PM 52.7020 -8.9248 138° Southeast  Level Estimated